Terminal Aerodrome Forecast
Issued by NWS Cleveland, OH

Home | Current Version | Previous Version | Graphics & Text | Print | Product List | Glossary On
Versions: 1 2 3 4 5 6 7 8 9 10 11 12 13 14 15 16 17 18 19
000
FTUS41 KCLE 041121
TAFERI
TAF
KERI 041121Z 0412/0512 VRB06KT P6SM BKN035
     FM050300 16010KT 6SM -RASN BKN025
     FM050500 18010KT 4SM -RASN BKN025 OVC040
     FM050900 25010KT P6SM VCSH BKN025=

USA.gov is the U.S. government's official web portal to all federal, state and local government web resources and services.